Moccasin, Arizona
Current Conditions -  °F | °C
As of 10:35 PM on Saturday 22 Nov 2014 (Local Time) from KSGU Reporting Station
Clear Clear  
Wind Chill: 45°   Ceiling: Unl
Heat Index: 45°   Visibility: 10mi
Dew Point: 21°   Wind: 0mph
Humidity: 39%   Direction: NA
Pressure: 29.91"   Gusts: NA
Location:  36.9484°N, 112.529°W
Report Text: KSGU 230535Z AUTO 00000KT 10SM CLR 07/M06 A2991 RMK AO1
Loading
Personal Weather Stations






























Interactive Weather Map New forecast layout! Learn more

10-Day Weather Forecast

Advertisements
Track Severe Weather on mobile